createdAt,value
2022-09-25T00:01:35.295Z,101127.13
2022-09-25T00:04:03.794Z,101118.34
2022-09-25T00:06:34.101Z,101122.75
2022-09-25T00:09:03.138Z,101118.31
2022-09-25T00:11:33.015Z,101122.75
2022-09-25T00:14:03.483Z,101117.47
2022-09-25T00:16:33.583Z,101114.00
2022-09-25T00:19:19.877Z,101115.78
2022-09-25T00:21:53.232Z,101109.66
2022-09-25T00:24:22.573Z,101122.84
2022-09-25T00:26:51.225Z,101129.91
2022-09-25T00:29:21.981Z,101124.63
2022-09-25T00:31:50.164Z,101128.13
2022-09-25T00:34:18.379Z,101126.34
2022-09-25T00:36:46.640Z,101121.97
2022-09-25T00:39:15.030Z,101126.41
2022-09-25T00:41:45.062Z,101128.16
2022-09-25T00:45:05.210Z,101129.94
2022-09-25T00:47:44.646Z,101114.19
2022-09-25T00:50:22.128Z,101130.00
2022-09-25T00:52:53.310Z,101125.56
2022-09-25T00:55:22.689Z,101133.47
2022-09-25T00:57:54.473Z,101130.84
2022-09-25T01:00:22.849Z,101135.28
2022-09-25T01:02:55.151Z,101131.72
2022-09-25T01:05:27.310Z,101131.72
2022-09-25T01:07:58.522Z,101129.06
2022-09-25T01:10:26.711Z,101124.66
2022-09-25T01:12:56.376Z,101121.16
2022-09-25T01:15:31.988Z,101122.94
2022-09-25T01:18:11.561Z,101122.94
2022-09-25T01:21:10.090Z,101121.25
2022-09-25T01:24:01.559Z,101124.81
2022-09-25T01:27:00.229Z,101126.59
2022-09-25T01:29:36.032Z,101124.81
2022-09-25T01:32:11.720Z,101135.38
2022-09-25T01:34:45.777Z,101114.25
2022-09-25T01:37:23.550Z,101125.66
2022-09-25T01:40:03.848Z,101122.16
2022-09-25T01:42:38.583Z,101124.81
2022-09-25T01:45:12.261Z,101124.81
2022-09-25T01:47:42.300Z,101112.47
2022-09-25T01:50:17.956Z,101114.19
2022-09-25T01:52:52.299Z,101122.09
2022-09-25T01:55:28.665Z,101110.72
2022-09-25T01:58:04.416Z,101113.38
2022-09-25T02:00:40.061Z,101107.19
2022-09-25T02:03:12.664Z,101104.53
2022-09-25T02:05:46.832Z,101094.84
2022-09-25T02:08:22.223Z,101093.06
2022-09-25T02:10:56.292Z,101094.75
2022-09-25T02:13:27.948Z,101085.94
2022-09-25T02:16:01.899Z,101081.50
2022-09-25T02:18:48.547Z,101084.19
2022-09-25T02:21:26.637Z,101079.00
2022-09-25T02:24:02.361Z,101073.75
2022-09-25T02:26:32.611Z,101072.06
2022-09-25T02:29:02.498Z,101065.88
2022-09-25T02:31:39.324Z,101068.56
2022-09-25T02:34:13.768Z,101070.31
2022-09-25T02:36:45.068Z,101066.78
2022-09-25T02:39:16.142Z,101060.63
2022-09-25T02:42:06.223Z,101064.16
2022-09-25T02:44:43.699Z,101058.78
2022-09-25T02:47:25.519Z,101050.84
2022-09-25T02:50:04.487Z,101054.41
2022-09-25T02:52:38.566Z,101056.13
2022-09-25T02:55:12.386Z,101047.34
2022-09-25T02:57:46.473Z,101045.63
2022-09-25T03:00:15.645Z,101049.13
2022-09-25T03:02:52.111Z,101048.28
2022-09-25T03:05:22.591Z,101050.91
2022-09-25T03:08:08.867Z,101052.66
2022-09-25T03:10:39.439Z,101045.63
2022-09-25T03:13:19.336Z,101052.69
2022-09-25T03:15:53.179Z,101044.78
2022-09-25T03:18:23.211Z,101046.50
2022-09-25T03:20:51.328Z,101055.34
2022-09-25T03:23:19.570Z,101035.09
2022-09-25T03:25:50.371Z,101036.81
2022-09-25T03:28:19.047Z,101039.44
2022-09-25T03:30:57.279Z,101031.47
2022-09-25T03:33:27.890Z,101034.91
2022-09-25T03:36:18.659Z,101033.06
2022-09-25T03:38:49.289Z,101022.53
2022-09-25T03:41:21.522Z,101026.06
2022-09-25T03:43:52.085Z,101032.28
2022-09-25T03:46:23.262Z,101024.44
2022-09-25T03:48:53.493Z,101028.00
2022-09-25T03:51:22.397Z,101024.47
2022-09-25T03:53:51.430Z,101026.22
2022-09-25T03:56:21.463Z,101021.88
2022-09-25T03:58:49.881Z,101014.84
2022-09-25T04:01:19.712Z,101020.09
2022-09-25T04:03:48.365Z,101023.63
2022-09-25T04:06:22.942Z,101027.13
2022-09-25T04:08:51.960Z,101017.50
2022-09-25T04:11:21.881Z,101019.25
2022-09-25T04:13:50.368Z,101026.34
2022-09-25T04:16:21.368Z,101021.16
2022-09-25T04:18:50.800Z,101028.19
2022-09-25T04:21:20.462Z,101027.34
2022-09-25T04:24:08.915Z,100998.41
2022-09-25T04:26:37.588Z,101008.81
2022-09-25T04:29:06.151Z,101026.44
2022-09-25T04:31:35.453Z,101028.19
2022-09-25T04:34:04.463Z,101021.13
2022-09-25T04:36:33.996Z,101021.06
2022-09-25T04:39:02.372Z,101025.44
2022-09-25T04:41:30.652Z,101017.56
2022-09-25T04:43:58.625Z,101020.22
2022-09-25T04:46:27.007Z,101015.81
2022-09-25T04:48:55.440Z,101015.78
2022-09-25T04:51:23.742Z,101012.28
2022-09-25T04:53:53.556Z,101012.38
2022-09-25T04:56:22.055Z,101015.97
2022-09-25T04:58:51.341Z,101017.78
2022-09-25T05:01:21.608Z,101014.28
2022-09-25T05:03:50.476Z,101010.81
2022-09-25T05:06:18.871Z,101003.81
2022-09-25T05:08:49.845Z,101028.41
2022-09-25T05:11:19.837Z,101024.97
2022-09-25T05:13:51.610Z,101024.97
2022-09-25T05:16:20.306Z,101020.59
2022-09-25T05:18:48.762Z,101028.47
2022-09-25T05:21:17.077Z,101018.88
2022-09-25T05:23:45.299Z,101031.13
2022-09-25T05:26:13.391Z,101023.25
2022-09-25T05:28:43.074Z,101025.91
2022-09-25T05:31:11.533Z,101026.75
2022-09-25T05:33:39.758Z,101019.78
2022-09-25T05:36:09.873Z,101037.31
2022-09-25T05:38:40.085Z,101021.47
2022-09-25T05:41:10.983Z,101003.91
2022-09-25T05:43:43.287Z,101025.84
2022-09-25T05:46:12.779Z,101023.19
2022-09-25T05:48:41.833Z,101016.19
2022-09-25T05:51:11.025Z,101017.94
2022-09-25T05:53:40.195Z,101003.03
2022-09-25T05:56:09.707Z,101017.03
2022-09-25T05:58:38.999Z,101008.25
2022-09-25T06:01:08.745Z,101005.59
2022-09-25T06:03:37.019Z,101002.09
2022-09-25T06:06:05.531Z,100998.53
2022-09-25T06:08:34.965Z,100984.47
2022-09-25T06:11:03.565Z,100993.16
2022-09-25T06:13:33.278Z,100994.06
2022-09-25T06:16:02.505Z,100992.31
2022-09-25T06:18:32.815Z,100986.13
2022-09-25T06:21:02.778Z,100980.81
2022-09-25T06:23:32.062Z,100982.53
2022-09-25T06:26:04.125Z,100979.91
2022-09-25T06:28:33.014Z,100986.00
2022-09-25T06:31:02.157Z,100978.97
2022-09-25T06:33:32.924Z,100990.38
2022-09-25T06:36:01.691Z,100977.19
2022-09-25T06:38:30.556Z,100987.66
2022-09-25T06:41:00.858Z,100987.63
2022-09-25T06:43:30.277Z,100982.31
2022-09-25T06:46:02.661Z,100988.41
2022-09-25T06:48:33.146Z,100981.31
2022-09-25T06:51:02.693Z,100981.28
2022-09-25T06:53:31.569Z,100976.84
2022-09-25T06:56:03.173Z,100981.25
2022-09-25T06:58:31.823Z,100965.38
2022-09-25T07:01:00.323Z,100969.72
2022-09-25T07:03:46.644Z,100974.94
2022-09-25T07:06:18.220Z,100976.66
2022-09-25T07:08:48.439Z,100974.72
2022-09-25T07:11:19.017Z,100967.59
2022-09-25T07:13:47.537Z,100974.50
2022-09-25T07:16:17.918Z,100973.53
2022-09-25T07:18:46.787Z,100980.47
2022-09-25T07:21:18.832Z,100958.53
2022-09-25T07:23:50.349Z,100974.13
2022-09-25T07:26:22.827Z,100949.47
2022-09-25T07:28:56.264Z,100964.47
2022-09-25T07:31:26.972Z,100971.44
2022-09-25T07:33:55.825Z,100967.84
2022-09-25T07:36:25.721Z,100965.22
2022-09-25T07:38:54.630Z,100965.22
2022-09-25T07:41:23.801Z,100958.22
2022-09-25T07:44:02.044Z,100959.94
2022-09-25T07:46:43.641Z,100970.47
2022-09-25T07:49:11.812Z,100971.28
2022-09-25T07:51:41.912Z,100964.22
2022-09-25T07:54:10.435Z,100966.72
2022-09-25T07:56:40.729Z,100953.47
2022-09-25T07:59:08.976Z,100950.81
2022-09-25T08:01:43.278Z,100966.69
2022-09-25T08:04:12.681Z,100966.63
2022-09-25T08:06:42.575Z,100947.38
2022-09-25T08:09:12.031Z,100948.25
2022-09-25T08:11:40.859Z,100955.88
2022-09-25T08:14:09.650Z,100952.31
2022-09-25T08:16:39.049Z,100948.00
2022-09-25T08:19:07.212Z,100955.72
2022-09-25T08:21:36.185Z,100960.06
2022-09-25T08:24:05.986Z,100950.31
2022-09-25T08:26:34.397Z,100957.38
2022-09-25T08:29:02.893Z,100952.03
2022-09-25T08:31:31.256Z,100953.72
2022-09-25T08:34:09.934Z,100948.44
2022-09-25T08:36:50.504Z,100950.97
2022-09-25T08:39:20.161Z,100936.88
2022-09-25T08:41:50.817Z,100950.78
2022-09-25T08:44:26.221Z,100940.06
2022-09-25T08:47:19.544Z,100951.59
2022-09-25T08:49:57.345Z,100953.31
2022-09-25T08:52:25.620Z,100956.75
2022-09-25T08:54:55.893Z,100946.16
2022-09-25T08:57:31.069Z,100948.03
2022-09-25T09:00:03.398Z,100953.31
2022-09-25T09:02:40.177Z,100944.47
2022-09-25T09:05:18.526Z,100945.53
2022-09-25T09:07:51.214Z,100946.22
2022-09-25T09:10:29.984Z,100941.00
2022-09-25T09:13:02.533Z,100932.13
2022-09-25T09:15:37.913Z,100940.72
2022-09-25T09:18:18.543Z,100944.16
2022-09-25T09:20:52.805Z,100930.00
2022-09-25T09:23:22.603Z,100924.75
2022-09-25T09:26:01.226Z,100935.31
2022-09-25T09:29:02.217Z,100930.06
2022-09-25T09:31:38.851Z,100922.91
2022-09-25T09:34:53.529Z,100900.09
2022-09-25T09:37:31.826Z,100914.00
2022-09-25T09:40:13.775Z,100908.63
2022-09-25T09:42:51.570Z,100898.00
2022-09-25T09:45:28.619Z,100894.31
2022-09-25T09:48:02.954Z,100896.91
2022-09-25T09:50:47.207Z,100894.16
2022-09-25T09:53:29.275Z,100888.72
2022-09-25T09:56:02.230Z,100881.47
2022-09-25T09:58:49.041Z,100884.06
2022-09-25T10:04:13.656Z,100882.31
2022-09-25T10:06:48.182Z,100888.41
2022-09-25T10:09:18.190Z,100886.66
2022-09-25T10:11:48.669Z,100877.84
2022-09-25T10:14:22.056Z,100886.66
2022-09-25T10:16:51.834Z,100879.56
2022-09-25T10:19:22.919Z,100869.63
2022-09-25T10:21:56.251Z,100870.25
2022-09-25T10:24:55.245Z,100862.13
2022-09-25T10:27:36.010Z,100871.03
2022-09-25T10:30:18.904Z,100864.81
2022-09-25T10:32:57.828Z,100864.75
2022-09-25T10:35:29.745Z,100858.47
2022-09-25T10:38:02.466Z,100859.44
2022-09-25T10:40:34.285Z,100856.47
2022-09-25T10:43:15.799Z,100850.06
2022-09-25T10:45:46.315Z,100850.13
2022-09-25T10:48:46.584Z,100850.22
2022-09-25T10:51:17.506Z,100851.88
2022-09-25T10:53:46.982Z,100844.81
2022-09-25T10:56:20.714Z,100836.69
2022-09-25T10:58:55.185Z,100834.00
2022-09-25T11:01:35.567Z,100833.00
2022-09-25T11:04:09.608Z,100835.28
2022-09-25T11:06:44.204Z,100822.97
2022-09-25T11:09:15.849Z,100835.94
2022-09-25T11:11:49.601Z,100827.63
2022-09-25T11:14:23.173Z,100820.22
2022-09-25T11:16:56.219Z,100816.31
2022-09-25T11:19:29.195Z,100801.09
2022-09-25T11:22:12.741Z,100807.41
2022-09-25T11:25:00.230Z,100805.91
2022-09-25T11:27:36.188Z,100795.94
2022-09-25T11:30:08.038Z,100794.09
2022-09-25T11:32:51.678Z,100790.34
2022-09-25T11:35:34.909Z,100793.81
2022-09-25T11:38:12.564Z,100794.63
2022-09-25T11:41:07.423Z,100796.25
2022-09-25T11:43:47.560Z,100798.03
2022-09-25T11:46:24.401Z,100801.06
2022-09-25T11:49:08.535Z,100802.41
2022-09-25T11:52:16.604Z,100799.06
2022-09-25T11:54:59.099Z,100808.38
2022-09-25T11:57:35.464Z,100801.47
2022-09-25T12:00:13.189Z,100804.09
2022-09-25T12:03:03.972Z,100791.53
2022-09-25T12:05:55.732Z,100795.56
2022-09-25T12:08:40.553Z,100789.13
2022-09-25T12:11:20.681Z,100794.31
2022-09-25T12:13:55.942Z,100779.94
2022-09-25T12:16:29.218Z,100786.84
2022-09-25T12:19:09.617Z,100786.53
2022-09-25T12:21:48.563Z,100777.94
2022-09-25T12:24:32.028Z,100767.50
2022-09-25T12:27:07.547Z,100775.88
2022-09-25T12:29:48.111Z,100762.19
2022-09-25T12:32:37.071Z,100774.53
2022-09-25T12:35:26.964Z,100767.19
2022-09-25T12:38:03.029Z,100766.22
2022-09-25T12:40:37.714Z,100763.91
2022-09-25T12:43:11.560Z,100760.69
2022-09-25T12:45:45.302Z,100765.44
2022-09-25T12:48:18.822Z,100760.88
2022-09-25T12:50:55.625Z,100753.84
2022-09-25T12:53:30.085Z,100745.78
2022-09-25T12:56:05.225Z,100752.78
2022-09-25T12:58:49.340Z,100741.91
2022-09-25T13:01:23.824Z,100743.84
2022-09-25T13:04:03.297Z,100731.88
2022-09-25T13:06:41.978Z,100741.41
2022-09-25T13:09:20.545Z,100726.34
2022-09-25T13:11:53.394Z,100735.06
2022-09-25T13:14:32.243Z,100731.66
2022-09-25T13:17:01.318Z,100729.66
2022-09-25T13:19:33.416Z,100725.78
2022-09-25T13:22:05.119Z,100726.19
2022-09-25T13:24:40.773Z,100717.75
2022-09-25T13:27:16.963Z,100707.69
2022-09-25T13:29:45.897Z,100696.84
2022-09-25T13:32:19.202Z,100703.94
2022-09-25T13:34:48.184Z,100696.63
2022-09-25T13:37:17.666Z,100697.75
2022-09-25T13:40:10.140Z,100697.88
2022-09-25T13:42:40.442Z,100683.66
2022-09-25T13:45:33.842Z,100687.31
2022-09-25T13:48:12.320Z,100671.31
2022-09-25T13:50:43.245Z,100688.34
2022-09-25T13:53:28.592Z,100680.53
2022-09-25T13:56:30.482Z,100669.41
2022-09-25T13:59:26.576Z,100672.78
2022-09-25T14:01:57.929Z,100665.56
2022-09-25T14:04:33.584Z,100658.41
2022-09-25T14:07:29.908Z,100653.97
2022-09-25T14:10:00.339Z,100653.19
2022-09-25T14:12:42.615Z,100660.13
2022-09-25T14:15:21.489Z,100650.09
2022-09-25T14:17:53.306Z,100651.03
2022-09-25T14:20:37.476Z,100645.84
2022-09-25T14:23:13.080Z,100653.81
2022-09-25T14:25:47.117Z,100654.56
2022-09-25T14:28:25.647Z,100654.63
2022-09-25T14:31:14.414Z,100646.97
2022-09-25T14:34:02.978Z,100643.56
2022-09-25T14:36:39.698Z,100641.19
2022-09-25T14:39:38.822Z,100644.75
2022-09-25T14:42:30.680Z,100643.00
2022-09-25T14:45:18.973Z,100641.09
2022-09-25T14:47:50.630Z,100637.75
2022-09-25T14:50:23.667Z,100642.19
2022-09-25T14:52:56.862Z,100644.81
2022-09-25T14:55:27.985Z,100628.84
2022-09-25T14:57:58.830Z,100639.59
2022-09-25T15:00:30.185Z,100644.22
2022-09-25T15:02:59.880Z,100638.13
2022-09-25T15:05:33.070Z,100623.94
2022-09-25T15:08:03.390Z,100627.78
2022-09-25T15:10:34.700Z,100621.53
2022-09-25T15:13:15.992Z,100617.59
2022-09-25T15:16:01.728Z,100612.38
2022-09-25T15:18:30.891Z,100626.47
2022-09-25T15:20:59.953Z,100613.13
2022-09-25T15:23:34.256Z,100614.28
2022-09-25T15:26:03.360Z,100610.75
2022-09-25T15:28:41.339Z,100613.41
2022-09-25T15:31:11.894Z,100608.81
2022-09-25T15:33:41.580Z,100612.09
2022-09-25T15:36:20.403Z,100605.06
2022-09-25T15:38:54.569Z,100582.44
2022-09-25T15:41:24.839Z,100598.38
2022-09-25T15:43:53.649Z,100591.06
2022-09-25T15:48:33.226Z,100575.66
2022-09-25T15:51:07.199Z,100577.50
2022-09-25T15:53:44.431Z,100565.25
2022-09-25T15:56:19.856Z,100561.66
2022-09-25T15:58:51.686Z,100558.19
2022-09-25T16:01:40.780Z,100558.19
2022-09-25T16:04:38.500Z,100560.09
2022-09-25T16:07:24.283Z,100555.88
2022-09-25T16:09:54.734Z,100549.50
2022-09-25T16:12:29.073Z,100538.81
2022-09-25T16:14:59.931Z,100547.66
2022-09-25T16:17:34.147Z,100539.50
2022-09-25T16:20:07.763Z,100540.47
2022-09-25T16:22:42.105Z,100537.75
2022-09-25T16:25:22.308Z,100530.69
2022-09-25T16:27:50.778Z,100518.19
2022-09-25T16:30:22.392Z,100511.97
2022-09-25T16:32:52.688Z,100524.44
2022-09-25T16:35:57.557Z,100524.53
2022-09-25T16:38:32.167Z,100511.31
2022-09-25T16:41:05.705Z,100509.59
2022-09-25T16:43:36.583Z,100502.63
2022-09-25T16:46:15.212Z,100510.69
2022-09-25T16:48:43.998Z,100503.75
2022-09-25T16:51:21.924Z,100487.09
2022-09-25T16:53:50.547Z,100492.31
2022-09-25T16:56:22.232Z,100476.75
2022-09-25T16:58:51.033Z,100478.47
2022-09-25T17:01:19.885Z,100476.75
2022-09-25T17:03:52.606Z,100478.31
2022-09-25T17:06:23.864Z,100466.78
2022-09-25T17:08:52.310Z,100467.72
2022-09-25T17:11:22.615Z,100461.88
2022-09-25T17:13:52.692Z,100454.34
2022-09-25T17:16:21.116Z,100449.13
2022-09-25T17:18:49.535Z,100439.63
2022-09-25T17:21:20.245Z,100442.38
2022-09-25T17:23:50.080Z,100433.56
2022-09-25T17:26:21.549Z,100419.38
2022-09-25T17:28:50.860Z,100413.34
2022-09-25T17:31:21.328Z,100430.91
2022-09-25T17:33:51.193Z,100423.91
2022-09-25T17:36:19.779Z,100424.84
2022-09-25T17:38:49.435Z,100418.00
2022-09-25T17:41:21.877Z,100419.72
2022-09-25T17:43:50.448Z,100417.19
2022-09-25T17:46:19.230Z,100409.38
2022-09-25T17:48:53.109Z,100397.13
2022-09-25T17:51:24.659Z,100384.28
2022-09-25T17:53:56.112Z,100394.91
2022-09-25T17:56:24.699Z,100375.69
2022-09-25T17:58:55.100Z,100385.03
2022-09-25T18:01:25.104Z,100379.03
2022-09-25T18:03:55.027Z,100372.06
2022-09-25T18:06:23.338Z,100368.56
2022-09-25T18:08:54.826Z,100366.72
2022-09-25T18:11:24.469Z,100369.56
2022-09-25T18:13:54.418Z,100359.19
2022-09-25T18:16:27.191Z,100353.91
2022-09-25T18:19:13.475Z,100348.72
2022-09-25T18:21:59.632Z,100352.13
2022-09-25T18:24:29.693Z,100338.22
2022-09-25T18:26:58.633Z,100329.72
2022-09-25T18:29:27.522Z,100323.44
2022-09-25T18:31:56.013Z,100342.63
2022-09-25T18:34:26.270Z,100341.69
2022-09-25T18:36:55.534Z,100342.66
2022-09-25T18:39:24.327Z,100336.53
2022-09-25T18:41:54.220Z,100326.06
2022-09-25T18:44:23.890Z,100320.84
2022-09-25T18:46:53.233Z,100319.84
2022-09-25T18:49:22.702Z,100320.78
2022-09-25T18:51:53.436Z,100310.94
2022-09-25T18:54:22.119Z,100309.94
2022-09-25T18:56:50.406Z,100311.66
2022-09-25T18:59:20.376Z,100314.41
2022-09-25T19:01:49.037Z,100304.91
2022-09-25T19:04:17.845Z,100304.97
2022-09-25T19:06:46.320Z,100297.78
2022-09-25T19:09:16.902Z,100288.97
2022-09-25T19:11:46.135Z,100294.31
2022-09-25T19:14:16.830Z,100276.88
2022-09-25T19:16:47.699Z,100290.94
2022-09-25T19:19:15.991Z,100262.91
2022-09-25T19:21:45.159Z,100276.88
2022-09-25T19:24:14.641Z,100268.03
2022-09-25T19:26:44.370Z,100278.53
2022-09-25T19:29:14.474Z,100245.84
2022-09-25T19:31:43.208Z,100283.81
2022-09-25T19:34:13.450Z,100273.50
2022-09-25T19:36:42.080Z,100277.03
2022-09-25T19:39:11.287Z,100278.84
2022-09-25T19:41:41.186Z,100269.16
2022-09-25T19:44:14.328Z,100273.63
2022-09-25T19:46:43.735Z,100254.59
2022-09-25T19:49:14.752Z,100262.38
2022-09-25T19:51:44.412Z,100262.34
2022-09-25T19:54:15.808Z,100259.97
2022-09-25T19:56:46.661Z,100244.41
2022-09-25T19:59:17.411Z,100241.81
2022-09-25T20:01:46.574Z,100242.59
2022-09-25T20:04:18.943Z,100230.44
2022-09-25T20:06:48.882Z,100236.56
2022-09-25T20:09:17.282Z,100225.09
2022-09-25T20:11:46.143Z,100227.75
2022-09-25T20:14:14.766Z,100220.00
2022-09-25T20:16:42.964Z,100221.75
2022-09-25T20:19:13.855Z,100232.25
2022-09-25T20:21:43.524Z,100220.69
2022-09-25T20:24:11.732Z,100208.03
2022-09-25T20:26:40.789Z,100205.38
2022-09-25T20:29:12.448Z,100200.97
2022-09-25T20:31:42.600Z,100194.88
2022-09-25T20:34:14.045Z,100183.66
2022-09-25T20:36:44.141Z,100183.66
2022-09-25T20:39:16.868Z,100179.41
2022-09-25T20:41:48.291Z,100174.19
2022-09-25T20:44:16.634Z,100174.81
2022-09-25T20:46:44.815Z,100165.03
2022-09-25T20:49:13.447Z,100151.00
2022-09-25T20:51:42.284Z,100147.50
2022-09-25T20:54:12.067Z,100139.50
2022-09-25T20:56:43.992Z,100139.47
2022-09-25T20:59:16.228Z,100140.31
2022-09-25T21:01:44.968Z,100140.31
2022-09-25T21:04:13.370Z,100127.28
2022-09-25T21:06:42.952Z,100135.38
2022-09-25T21:09:19.645Z,100122.34
2022-09-25T21:11:48.412Z,100125.91
2022-09-25T21:14:23.983Z,100115.34
2022-09-25T21:16:52.963Z,100110.72
2022-09-25T21:19:23.381Z,100109.13
2022-09-25T21:21:51.787Z,100108.38
2022-09-25T21:24:22.950Z,100102.09
2022-09-25T21:26:52.005Z,100098.38
2022-09-25T21:29:21.527Z,100101.19
2022-09-25T21:31:50.853Z,100089.63
2022-09-25T21:34:19.883Z,100092.06
2022-09-25T21:36:49.170Z,100087.47
2022-09-25T21:39:17.771Z,100086.56
2022-09-25T21:41:49.145Z,100089.28
2022-09-25T21:44:20.374Z,100076.88
2022-09-25T21:46:48.647Z,100070.84
2022-09-25T21:49:18.646Z,100073.41
2022-09-25T21:51:47.610Z,100055.75
2022-09-25T21:54:17.784Z,100076.72
2022-09-25T21:56:46.251Z,100064.50
2022-09-25T21:59:16.617Z,100066.22
2022-09-25T22:01:45.031Z,100061.75
2022-09-25T22:04:14.883Z,100067.97
2022-09-25T22:06:44.607Z,100059.31
2022-09-25T22:09:14.597Z,100046.03
2022-09-25T22:11:43.679Z,100049.63
2022-09-25T22:14:16.096Z,100054.03
2022-09-25T22:16:48.137Z,100046.16
2022-09-25T22:19:19.348Z,100036.41
2022-09-25T22:21:49.186Z,100041.69
2022-09-25T22:24:17.872Z,100044.34
2022-09-25T22:26:48.060Z,100034.69
2022-09-25T22:29:17.413Z,100029.41
2022-09-25T22:31:47.416Z,100027.66
2022-09-25T22:34:19.806Z,100024.22
2022-09-25T22:36:48.334Z,100017.19
2022-09-25T22:39:18.556Z,100014.66
2022-09-25T22:41:50.964Z,100013.78
2022-09-25T22:44:20.117Z,100006.78
2022-09-25T22:46:49.951Z,99998.00
2022-09-25T22:49:18.991Z,99991.03
2022-09-25T22:51:47.293Z,100001.59
2022-09-25T22:54:15.996Z,100000.66
2022-09-25T22:56:45.112Z,100000.72
2022-09-25T22:59:16.304Z,100001.75
2022-09-25T23:01:47.565Z,100001.00
2022-09-25T23:04:19.644Z,99994.91
2022-09-25T23:06:48.406Z,100007.97
2022-09-25T23:09:18.887Z,100008.94
2022-09-25T23:11:47.376Z,100014.31
2022-09-25T23:14:17.712Z,99999.44
2022-09-25T23:16:47.096Z,100007.22
2022-09-25T23:19:17.435Z,99989.81
2022-09-25T23:21:46.084Z,99996.72
2022-09-25T23:24:17.755Z,100001.28
2022-09-25T23:26:46.934Z,99990.03
2022-09-25T23:29:16.683Z,99989.13
2022-09-25T23:31:45.671Z,99984.69
2022-09-25T23:34:14.049Z,99977.75
2022-09-25T23:36:43.691Z,99973.41
2022-09-25T23:39:16.983Z,99976.16
2022-09-25T23:41:45.512Z,99977.03
2022-09-25T23:44:13.682Z,99969.16
2022-09-25T23:46:43.408Z,99977.97
2022-09-25T23:49:14.929Z,99979.88
2022-09-25T23:51:46.610Z,99965.72
2022-09-25T23:54:15.094Z,99966.81
2022-09-25T23:56:43.762Z,99954.59
2022-09-25T23:59:13.854Z,99955.47
